Time;durP1;ratioP1;P1;durP2;ratioP2;P2;SDS_P1;SDS_P2;PMS_P1;PMS_P2;Temp;Humidity;BMP_temperature;BMP_pressure;BME280_temperature;BME280_humidity;BME280_pressure;Samples;Min_cycle;Max_cycle;Signal;HPM_P1;HPM_P2
2021/05/08 00:00:40;;;;;;;1.58;1.30;;;5.00;99.90;;;;;;4920066;29;20401;-77
2021/05/08 00:03:06;;;;;;;1.43;1.33;;;4.90;99.90;;;;;;4882911;29;20432;-77
2021/05/08 00:05:31;;;;;;;1.42;1.33;;;5.10;99.90;;;;;;4914960;29;20409;-76
2021/05/08 00:07:57;;;;;;;1.30;1.20;;;5.00;99.90;;;;;;4897190;29;20412;-77
2021/05/08 00:10:23;;;;;;;1.30;1.20;;;5.00;99.90;;;;;;4911102;29;20440;-76
2021/05/08 00:12:49;;;;;;;1.10;1.10;;;4.90;99.90;;;;;;4914128;29;20483;-76
2021/05/08 00:15:15;;;;;;;1.13;1.13;;;4.90;99.90;;;;;;4926851;29;20874;-77
2021/05/08 00:17:41;;;;;;;1.10;1.10;;;4.90;99.90;;;;;;4899181;29;20406;-77
2021/05/08 00:20:11;;;;;;;1.40;1.30;;;5.00;99.90;;;;;;4910785;29;20423;-77
2021/05/08 00:22:37;;;;;;;1.25;1.20;;;4.80;99.90;;;;;;4908010;29;20395;-77
2021/05/08 00:25:09;;;;;;;1.08;1.08;;;4.70;99.90;;;;;;4893375;29;20426;-76
2021/05/08 00:27:35;;;;;;;1.30;1.20;;;4.70;99.90;;;;;;4909751;29;20422;-77
2021/05/08 00:30:00;;;;;;;2.40;1.40;;;4.70;99.90;;;;;;4914850;29;20435;-77
2021/05/08 00:32:26;;;;;;;1.90;1.30;;;4.60;99.90;;;;;;4902793;29;21101;-78
2021/05/08 00:34:52;;;;;;;1.63;1.40;;;4.60;99.90;;;;;;4895650;29;20495;-77
2021/05/08 00:37:18;;;;;;;1.48;1.38;;;4.50;99.90;;;;;;4901020;29;20419;-78
2021/05/08 00:39:44;;;;;;;1.10;1.10;;;4.50;99.90;;;;;;4916778;29;20408;-77
2021/05/08 00:42:10;;;;;;;1.30;1.27;;;4.50;99.90;;;;;;4913807;29;20414;-77
2021/05/08 00:44:37;;;;;;;1.30;1.20;;;4.40;99.90;;;;;;4899412;29;20452;-76
2021/05/08 00:47:03;;;;;;;1.60;1.40;;;4.30;99.90;;;;;;4885108;29;20831;-78
2021/05/08 00:49:30;;;;;;;1.50;1.40;;;4.40;99.90;;;;;;4889827;29;20427;-76
2021/05/08 00:51:57;;;;;;;1.30;1.20;;;4.30;99.90;;;;;;4886352;29;20430;-77
2021/05/08 00:54:23;;;;;;;1.50;1.40;;;4.20;99.90;;;;;;4882176;29;20415;-77
2021/05/08 00:56:49;;;;;;;1.75;1.65;;;4.20;99.90;;;;;;4899957;29;20394;-78
2021/05/08 00:59:15;;;;;;;1.60;1.50;;;4.10;99.90;;;;;;4900853;29;20420;-76
2021/05/08 01:01:42;;;;;;;1.40;1.30;;;4.10;99.90;;;;;;4906052;29;20493;-77
2021/05/08 01:04:09;;;;;;;1.92;1.60;;;4.00;99.90;;;;;;4889055;29;20906;-77
2021/05/08 01:06:36;;;;;;;1.90;1.73;;;4.00;99.90;;;;;;4905009;29;20513;-78
2021/05/08 01:09:02;;;;;;;1.52;1.42;;;4.00;99.90;;;;;;4881971;29;20992;-77
2021/05/08 01:11:28;;;;;;;1.60;1.50;;;3.90;99.90;;;;;;4914520;29;20468;-77
2021/05/08 01:13:53;;;;;;;1.77;1.67;;;3.90;99.90;;;;;;4915822;29;20422;-78
2021/05/08 01:16:19;;;;;;;1.60;1.50;;;3.90;99.90;;;;;;4897766;29;21096;-77
2021/05/08 01:18:51;;;;;;;1.50;1.40;;;3.80;99.90;;;;;;4898938;29;20818;-77
2021/05/08 01:21:19;;;;;;;1.67;1.58;;;3.80;99.90;;;;;;4896510;29;20427;-78
2021/05/08 01:23:47;;;;;;;1.52;1.42;;;3.70;99.90;;;;;;4886230;29;20434;-78
2021/05/08 01:26:13;;;;;;;1.80;1.70;;;3.60;99.90;;;;;;4905727;29;20502;-76
2021/05/08 01:28:39;;;;;;;1.55;1.45;;;3.60;99.90;;;;;;4904850;29;20415;-76
2021/05/08 01:31:07;;;;;;;1.88;1.70;;;3.60;99.90;;;;;;4883519;29;20486;-77
2021/05/08 01:33:33;;;;;;;1.67;1.58;;;3.50;99.90;;;;;;4931188;29;20422;-80
2021/05/08 01:35:58;;;;;;;1.70;1.60;;;3.50;99.90;;;;;;4931582;29;20430;-77
2021/05/08 01:38:27;;;;;;;2.20;2.00;;;3.60;99.90;;;;;;4903743;29;20433;-76
2021/05/08 01:41:01;;;;;;;2.22;2.10;;;3.60;99.90;;;;;;4918162;29;20831;-76
2021/05/08 01:43:27;;;;;;;2.37;2.00;;;3.60;99.90;;;;;;4886026;29;20417;-76
2021/05/08 01:45:54;;;;;;;2.08;1.90;;;3.50;99.90;;;;;;4929792;29;20431;-78
2021/05/08 01:48:20;;;;;;;1.90;1.80;;;3.40;99.90;;;;;;4910587;29;20506;-77
2021/05/08 01:50:46;;;;;;;2.00;1.90;;;3.40;99.90;;;;;;4907259;29;20842;-75
2021/05/08 01:53:12;;;;;;;2.30;2.10;;;3.50;99.90;;;;;;4909452;29;21104;-78
2021/05/08 01:55:43;;;;;;;1.90;1.80;;;3.40;99.90;;;;;;4914733;29;20412;-76
2021/05/08 01:58:16;;;;;;;2.30;2.10;;;3.50;99.90;;;;;;4917353;29;20420;-79
2021/05/08 02:00:47;;;;;;;2.25;2.05;;;3.50;99.90;;;;;;4897310;29;20567;-76
2021/05/08 02:03:13;;;;;;;2.25;2.08;;;3.50;99.90;;;;;;4908761;29;20437;-76
2021/05/08 02:05:40;;;;;;;2.22;2.10;;;3.50;99.90;;;;;;4924498;29;20439;-76
2021/05/08 02:08:13;;;;;;;1.95;1.85;;;3.50;99.90;;;;;;4883198;29;20450;-76
2021/05/08 02:10:41;;;;;;;2.50;2.30;;;3.50;99.90;;;;;;4916811;29;20480;-77
2021/05/08 02:13:07;;;;;;;2.22;2.10;;;3.50;99.90;;;;;;4900397;29;20446;-78
2021/05/08 02:15:34;;;;;;;2.50;2.30;;;3.60;99.90;;;;;;4921974;29;20406;-76
2021/05/08 02:18:01;;;;;;;2.60;2.40;;;3.60;99.90;;;;;;4898916;29;20395;-77
2021/05/08 02:20:28;;;;;;;2.88;2.60;;;3.60;99.90;;;;;;4914777;29;20917;-78
2021/05/08 02:22:54;;;;;;;2.40;2.25;;;3.60;99.90;;;;;;4869680;29;20434;-79
2021/05/08 02:25:20;;;;;;;2.50;2.30;;;3.60;99.90;;;;;;4913299;29;20449;-77
2021/05/08 02:27:47;;;;;;;2.50;2.30;;;3.60;99.90;;;;;;4914890;29;20403;-77
2021/05/08 02:30:18;;;;;;;3.15;2.50;;;3.60;99.90;;;;;;4911499;29;20447;-77
2021/05/08 02:32:44;;;;;;;2.78;2.58;;;3.60;99.90;;;;;;4889341;29;20407;-79
2021/05/08 02:35:12;;;;;;;2.60;2.40;;;3.50;99.90;;;;;;4869208;29;20411;-78
2021/05/08 02:37:38;;;;;;;2.60;2.40;;;3.50;99.90;;;;;;4922249;29;20925;-78
2021/05/08 02:40:09;;;;;;;2.83;2.60;;;3.50;99.90;;;;;;4925536;29;20481;-79
2021/05/08 02:42:35;;;;;;;2.95;2.75;;;3.50;99.90;;;;;;4916390;29;20488;-78
2021/05/08 02:45:03;;;;;;;2.60;2.40;;;3.60;99.90;;;;;;4877076;29;20427;-78
2021/05/08 02:47:29;;;;;;;2.75;2.55;;;3.50;99.90;;;;;;4924638;29;20824;-79
2021/05/08 02:49:55;;;;;;;2.90;2.70;;;3.50;99.90;;;;;;4931229;29;20403;-80
2021/05/08 02:52:21;;;;;;;2.78;2.53;;;3.50;99.90;;;;;;4917664;29;20406;-78
2021/05/08 02:54:48;;;;;;;2.47;2.28;;;3.50;99.90;;;;;;4900871;29;20509;-78
2021/05/08 02:57:14;;;;;;;2.55;2.35;;;3.50;99.90;;;;;;4900121;29;20402;-81
2021/05/08 02:59:39;;;;;;;2.80;2.43;;;3.50;99.90;;;;;;4901042;29;20429;-78
2021/05/08 03:02:05;;;;;;;4.30;2.27;;;3.50;99.90;;;;;;4910554;29;20414;-78
2021/05/08 03:04:32;;;;;;;2.70;2.50;;;3.50;99.90;;;;;;4897810;29;20989;-79
2021/05/08 03:06:57;;;;;;;2.80;2.60;;;3.30;99.90;;;;;;4916298;28;20410;-77
2021/05/08 03:09:23;;;;;;;2.90;2.60;;;3.50;99.90;;;;;;4917441;29;20410;-78
2021/05/08 03:11:49;;;;;;;3.83;2.58;;;3.60;99.90;;;;;;4899181;29;20987;-78
2021/05/08 03:14:15;;;;;;;2.63;2.42;;;3.60;99.90;;;;;;4909749;29;20469;-78
2021/05/08 03:16:43;;;;;;;2.55;2.35;;;3.50;99.90;;;;;;4896552;29;21098;-78
2021/05/08 03:19:09;;;;;;;2.75;2.55;;;3.60;99.90;;;;;;4888760;29;20418;-79
2021/05/08 03:21:36;;;;;;;2.90;2.70;;;3.50;99.90;;;;;;4902188;29;20416;-78
2021/05/08 03:24:02;;;;;;;2.80;2.60;;;3.50;99.90;;;;;;4912693;29;20407;-78
2021/05/08 03:26:28;;;;;;;2.90;2.70;;;3.50;99.90;;;;;;4897661;29;20894;-77
2021/05/08 03:28:53;;;;;;;3.05;2.75;;;3.50;99.90;;;;;;4911943;29;20407;-78
2021/05/08 03:31:19;;;;;;;2.90;2.60;;;3.50;99.90;;;;;;4897648;28;20406;-76
2021/05/08 03:33:45;;;;;;;3.20;2.90;;;3.50;99.90;;;;;;4915876;29;20410;-76
2021/05/08 03:36:11;;;;;;;2.65;2.45;;;3.50;99.90;;;;;;4911803;29;20791;-77
2021/05/08 03:38:37;;;;;;;2.85;2.65;;;3.50;99.90;;;;;;4908042;29;20412;-77
2021/05/08 03:41:03;;;;;;;2.75;2.55;;;3.40;99.90;;;;;;4908727;29;20483;-77
2021/05/08 03:43:29;;;;;;;2.83;2.63;;;3.40;99.90;;;;;;4896350;29;20403;-76
2021/05/08 03:45:55;;;;;;;3.28;3.00;;;3.50;99.90;;;;;;4881700;29;20418;-77
2021/05/08 03:48:21;;;;;;;3.30;3.00;;;3.50;99.90;;;;;;4911114;29;20424;-76
2021/05/08 03:50:46;;;;;;;2.93;2.57;;;3.40;99.90;;;;;;4881254;29;20496;-76
2021/05/08 03:53:12;;;;;;;4.10;2.90;;;3.50;99.90;;;;;;4893957;29;20508;-76
2021/05/08 03:55:39;;;;;;;3.15;2.95;;;3.50;99.90;;;;;;4904533;29;20406;-76
2021/05/08 03:58:05;;;;;;;2.92;2.72;;;3.50;99.90;;;;;;4914683;29;20829;-73
2021/05/08 04:00:30;;;;;;;3.40;2.97;;;3.50;99.90;;;;;;4898864;29;20426;-75
2021/05/08 04:02:56;;;;;;;3.47;2.90;;;3.60;99.90;;;;;;4924449;29;20446;-74
2021/05/08 04:05:22;;;;;;;3.10;2.90;;;3.60;99.90;;;;;;4913401;29;20926;-76
2021/05/08 04:07:48;;;;;;;4.70;3.30;;;3.70;99.90;;;;;;4929030;29;20399;-76
2021/05/08 04:10:13;;;;;;;3.10;2.90;;;3.70;99.90;;;;;;4914323;29;20425;-74
2021/05/08 04:12:39;;;;;;;3.38;3.08;;;3.70;99.90;;;;;;4899848;29;20928;-75
2021/05/08 04:15:05;;;;;;;3.08;2.88;;;3.70;99.90;;;;;;4913762;29;20426;-74
2021/05/08 04:17:31;;;;;;;3.38;2.83;;;3.80;99.90;;;;;;4898204;29;20446;-75
2021/05/08 04:19:57;;;;;;;3.00;2.80;;;3.80;99.90;;;;;;4915213;29;20955;-75
2021/05/08 04:22:22;;;;;;;3.90;3.40;;;3.80;99.90;;;;;;4911818;29;20840;-77
2021/05/08 04:24:48;;;;;;;4.07;3.13;;;3.80;99.90;;;;;;4909809;29;20439;-75
2021/05/08 04:27:14;;;;;;;3.22;2.80;;;3.90;99.90;;;;;;4909979;29;20399;-75
2021/05/08 04:29:39;;;;;;;3.00;2.80;;;3.90;99.90;;;;;;4928223;29;20407;-75
2021/05/08 04:32:05;;;;;;;3.10;2.80;;;3.90;99.90;;;;;;4914448;29;20921;-75
2021/05/08 04:34:31;;;;;;;4.25;2.75;;;4.10;99.90;;;;;;4898333;29;20482;-75
2021/05/08 04:36:57;;;;;;;3.70;3.40;;;4.10;99.90;;;;;;4910544;29;20426;-75
2021/05/08 04:39:24;;;;;;;3.40;3.20;;;4.10;99.90;;;;;;4909957;29;20414;-73
2021/05/08 04:41:49;;;;;;;3.17;2.88;;;4.20;99.90;;;;;;4899071;29;20418;-74
2021/05/08 04:44:15;;;;;;;3.30;3.00;;;4.20;99.90;;;;;;4914413;29;20493;-76
2021/05/08 04:46:41;;;;;;;3.28;3.08;;;4.30;99.90;;;;;;4914600;29;20454;-77
2021/05/08 04:49:07;;;;;;;3.17;2.87;;;4.50;99.90;;;;;;4912139;29;20480;-75
2021/05/08 04:51:32;;;;;;;2.80;2.60;;;4.50;99.90;;;;;;4926264;29;20411;-75
2021/05/08 04:53:58;;;;;;;3.42;3.13;;;4.50;99.90;;;;;;4926714;29;20482;-75
2021/05/08 04:56:24;;;;;;;3.50;3.07;;;4.60;99.90;;;;;;4910984;29;20411;-75
2021/05/08 04:58:49;;;;;;;3.20;2.92;;;4.70;99.90;;;;;;4928507;29;20420;-75
2021/05/08 05:01:15;;;;;;;3.13;2.90;;;4.70;99.90;;;;;;4925578;29;20913;-75
2021/05/08 05:03:41;;;;;;;3.30;3.00;;;4.80;99.90;;;;;;4902366;29;20423;-76
2021/05/08 05:06:06;;;;;;;3.33;2.80;;;4.80;99.90;;;;;;4911661;29;20794;-76
2021/05/08 05:08:32;;;;;;;2.90;2.70;;;4.90;99.90;;;;;;4896654;28;20497;-75
2021/05/08 05:10:58;;;;;;;3.50;3.05;;;5.00;99.90;;;;;;4903994;29;20766;-76
2021/05/08 05:13:25;;;;;;;3.30;3.00;;;5.10;99.90;;;;;;4902215;29;20420;-77
2021/05/08 05:15:51;;;;;;;3.03;2.80;;;5.20;99.90;;;;;;4927859;29;21045;-77
2021/05/08 05:18:17;;;;;;;3.70;3.40;;;5.20;99.90;;;;;;4917811;29;20425;-77
2021/05/08 05:20:44;;;;;;;3.47;3.17;;;5.30;99.90;;;;;;4914341;29;20427;-77
2021/05/08 05:23:10;;;;;;;3.08;2.88;;;5.30;99.90;;;;;;4918259;29;20465;-78
2021/05/08 05:25:35;;;;;;;4.75;3.25;;;5.40;99.90;;;;;;4921407;29;20494;-77
2021/05/08 05:28:01;;;;;;;2.80;2.60;;;5.50;99.90;;;;;;4927398;29;20427;-77
2021/05/08 05:30:28;;;;;;;3.73;2.93;;;5.70;99.90;;;;;;4910885;29;20413;-77
2021/05/08 05:32:54;;;;;;;3.20;2.90;;;5.60;99.90;;;;;;4915756;29;20910;-76
2021/05/08 05:35:19;;;;;;;3.53;3.22;;;5.60;99.90;;;;;;4928821;29;20407;-76
2021/05/08 05:37:45;;;;;;;3.40;3.10;;;5.70;99.90;;;;;;4917386;29;20399;-77
2021/05/08 05:40:11;;;;;;;3.35;3.05;;;5.80;99.90;;;;;;4916767;29;20873;-76
2021/05/08 05:42:38;;;;;;;2.97;2.78;;;5.70;99.90;;;;;;4899653;29;20454;-77
2021/05/08 05:45:06;;;;;;;3.78;3.35;;;5.80;99.90;;;;;;4896233;29;20985;-76
2021/05/08 05:47:32;;;;;;;5.57;4.20;;;5.90;99.90;;;;;;4901276;29;20738;-76
2021/05/08 05:49:58;;;;;;;3.85;3.35;;;6.10;99.90;;;;;;4916230;29;20435;-77
2021/05/08 05:52:23;;;;;;;3.17;2.87;;;6.30;99.90;;;;;;4918134;29;20465;-80
2021/05/08 05:54:50;;;;;;;3.35;3.00;;;6.30;99.90;;;;;;4901719;29;20770;-79
2021/05/08 05:57:16;;;;;;;3.40;3.10;;;6.30;99.90;;;;;;4933419;28;20424;-78
2021/05/08 05:59:42;;;;;;;2.90;2.70;;;6.30;99.90;;;;;;4914444;29;20835;-78
2021/05/08 06:02:08;;;;;;;3.10;2.90;;;6.30;99.90;;;;;;4909841;29;20864;-78
2021/05/08 06:04:33;;;;;;;4.22;3.03;;;6.40;99.90;;;;;;4899950;29;20512;-77
2021/05/08 06:06:59;;;;;;;3.47;3.20;;;6.50;99.90;;;;;;4933199;28;20429;-79
2021/05/08 06:09:26;;;;;;;3.17;2.92;;;6.70;99.90;;;;;;4903558;29;20565;-79
2021/05/08 06:11:55;;;;;;;3.30;3.00;;;6.80;99.90;;;;;;4910344;29;20809;-78
2021/05/08 06:14:24;;;;;;;4.32;3.90;;;6.90;99.90;;;;;;4893461;29;20424;-78
2021/05/08 06:16:50;;;;;;;5.47;4.88;;;6.90;99.90;;;;;;4912657;29;20411;-78
2021/05/08 06:19:16;;;;;;;5.18;3.22;;;7.00;99.90;;;;;;4914818;29;20403;-78
2021/05/08 06:21:42;;;;;;;4.18;3.38;;;7.00;99.90;;;;;;4891541;29;20404;-78
2021/05/08 06:24:09;;;;;;;3.75;3.03;;;7.00;99.90;;;;;;4886784;29;20417;-78
2021/05/08 06:26:35;;;;;;;3.60;3.30;;;7.10;99.90;;;;;;4895070;29;20834;-77
2021/05/08 06:29:01;;;;;;;3.35;3.10;;;7.20;99.90;;;;;;4916518;29;20402;-78
2021/05/08 06:31:27;;;;;;;3.42;3.13;;;7.30;99.90;;;;;;4901349;29;20947;-78
2021/05/08 06:33:53;;;;;;;3.40;3.10;;;7.40;99.90;;;;;;4916822;29;20418;-78
2021/05/08 06:36:18;;;;;;;3.87;3.50;;;7.60;99.90;;;;;;4933771;29;20459;-78
2021/05/08 06:38:44;;;;;;;3.80;3.50;;;7.70;99.90;;;;;;4917134;29;21124;-78
2021/05/08 06:41:10;;;;;;;3.27;2.97;;;7.90;99.90;;;;;;4916111;29;20420;-78
2021/05/08 06:43:35;;;;;;;3.10;2.90;;;8.00;99.90;;;;;;4916749;29;20863;-77
2021/05/08 06:46:01;;;;;;;4.50;3.40;;;8.20;99.90;;;;;;4898554;29;20425;-78
2021/05/08 06:48:27;;;;;;;2.70;2.50;;;8.50;99.90;;;;;;4910090;29;20975;-78
2021/05/08 06:50:53;;;;;;;3.58;2.72;;;8.80;99.90;;;;;;4900503;29;20553;-78
2021/05/08 06:53:18;;;;;;;3.20;2.90;;;8.60;99.90;;;;;;4918360;29;20430;-78
2021/05/08 06:55:44;;;;;;;3.00;2.80;;;8.80;99.90;;;;;;4924258;29;20476;-78
2021/05/08 06:58:10;;;;;;;3.70;2.88;;;8.90;99.90;;;;;;4915366;29;20411;-78
2021/05/08 07:00:36;;;;;;;3.22;2.95;;;9.00;99.90;;;;;;4912387;29;20480;-78
2021/05/08 07:03:01;;;;;;;3.10;2.80;;;9.10;99.90;;;;;;4882367;29;20410;-78
2021/05/08 07:05:29;;;;;;;3.42;3.08;;;9.20;99.90;;;;;;4914541;29;20781;-78
2021/05/08 07:08:08;;;;;;;3.90;3.25;;;9.40;99.90;;;;;;4915727;29;20406;-78
2021/05/08 07:10:46;;;;;;;3.40;3.10;;;9.60;99.90;;;;;;4894398;29;20414;-79
2021/05/08 07:13:12;;;;;;;3.53;3.03;;;9.70;99.90;;;;;;4898111;29;20473;-79
2021/05/08 07:15:38;;;;;;;3.10;2.80;;;9.90;99.90;;;;;;4900207;29;20491;-79
2021/05/08 07:18:05;;;;;;;2.70;2.47;;;10.00;99.90;;;;;;4910999;29;20488;-79
2021/05/08 07:20:30;;;;;;;2.87;2.27;;;10.10;99.90;;;;;;4889096;29;20786;-79
2021/05/08 07:22:56;;;;;;;2.90;2.43;;;10.10;99.90;;;;;;4915849;29;20500;-79
2021/05/08 07:25:23;;;;;;;2.67;2.47;;;10.00;99.90;;;;;;4933475;29;20465;-80
2021/05/08 07:27:49;;;;;;;2.78;2.58;;;10.10;99.90;;;;;;4887714;29;20478;-81
2021/05/08 07:30:15;;;;;;;3.63;3.10;;;10.20;99.90;;;;;;4883866;29;20940;-80
2021/05/08 07:32:41;;;;;;;2.67;2.27;;;10.40;99.90;;;;;;4908154;29;20404;-80
2021/05/08 07:35:07;;;;;;;2.47;2.27;;;10.60;99.90;;;;;;4884162;29;20909;-79
2021/05/08 07:37:33;;;;;;;2.77;2.50;;;10.70;99.90;;;;;;4899571;29;20486;-78
2021/05/08 07:39:59;;;;;;;2.28;2.08;;;10.90;99.90;;;;;;4897149;29;20494;-78
2021/05/08 07:42:24;;;;;;;2.00;1.90;;;11.20;99.90;;;;;;4916566;29;20398;-79
2021/05/08 07:44:50;;;;;;;2.60;2.40;;;11.50;99.90;;;;;;4899367;29;20884;-77
2021/05/08 07:47:16;;;;;;;3.90;2.78;;;11.40;99.90;;;;;;4901221;29;20410;-79
2021/05/08 07:49:41;;;;;;;2.60;2.40;;;11.40;99.90;;;;;;4913780;29;20396;-79
2021/05/08 07:52:07;;;;;;;2.83;2.55;;;11.60;99.90;;;;;;4915165;29;20410;-78
2021/05/08 07:54:33;;;;;;;1.70;1.60;;;11.80;99.90;;;;;;4901744;29;20481;-79
2021/05/08 07:56:59;;;;;;;2.93;2.27;;;11.70;99.90;;;;;;4883301;29;20473;-80
2021/05/08 07:59:24;;;;;;;3.08;2.33;;;11.50;99.90;;;;;;4917171;29;20411;-79
2021/05/08 08:01:50;;;;;;;2.30;2.10;;;11.50;99.90;;;;;;4902353;29;20409;-80
2021/05/08 08:04:16;;;;;;;2.45;2.20;;;11.60;99.90;;;;;;4904234;29;20416;-80
2021/05/08 08:06:42;;;;;;;2.30;2.00;;;11.90;99.90;;;;;;4904733;29;20950;-80
2021/05/08 08:09:07;;;;;;;2.73;2.13;;;12.20;99.90;;;;;;4893399;29;20467;-80
2021/05/08 08:11:33;;;;;;;1.80;1.70;;;12.30;99.90;;;;;;4902936;29;20473;-80
2021/05/08 08:14:04;;;;;;;2.20;2.10;;;12.30;99.90;;;;;;4898631;29;20493;-80
2021/05/08 08:16:34;;;;;;;1.60;1.50;;;12.60;99.90;;;;;;4904635;29;20391;-80
2021/05/08 08:19:03;;;;;;;1.80;1.70;;;12.80;99.90;;;;;;4926344;29;20425;-80
2021/05/08 08:21:28;;;;;;;2.83;2.00;;;13.00;99.90;;;;;;4921979;29;20406;-80
2021/05/08 08:23:56;;;;;;;1.90;1.80;;;13.00;99.90;;;;;;4925301;29;20410;-80
2021/05/08 08:26:21;;;;;;;2.38;1.85;;;13.00;99.90;;;;;;4889266;29;20942;-81
2021/05/08 08:28:47;;;;;;;1.70;1.60;;;13.10;99.90;;;;;;4910795;29;20423;-80
2021/05/08 08:31:13;;;;;;;2.08;1.92;;;13.10;99.90;;;;;;4913956;29;20402;-80
2021/05/08 08:33:39;;;;;;;2.17;1.97;;;13.10;99.90;;;;;;4887510;29;20939;-79
2021/05/08 08:36:05;;;;;;;1.88;1.65;;;13.30;99.90;;;;;;4898074;29;20415;-80
2021/05/08 08:38:30;;;;;;;1.67;1.57;;;13.30;99.90;;;;;;4880750;29;20449;-81
2021/05/08 08:40:56;;;;;;;1.65;1.55;;;13.30;99.90;;;;;;4897692;29;20458;-80
2021/05/08 08:43:23;;;;;;;2.05;1.85;;;13.50;99.90;;;;;;4923611;29;20830;-79
2021/05/08 08:45:49;;;;;;;2.63;1.80;;;13.60;99.90;;;;;;4908924;29;20906;-79
2021/05/08 08:48:14;;;;;;;2.05;1.85;;;13.80;99.90;;;;;;4927915;29;20458;-80
2021/05/08 08:50:40;;;;;;;2.00;1.70;;;13.80;99.90;;;;;;4909010;29;20388;-79
2021/05/08 08:53:08;;;;;;;1.60;1.50;;;13.60;99.90;;;;;;4933036;29;20412;-80
2021/05/08 08:55:34;;;;;;;2.13;1.95;;;13.80;99.90;;;;;;4916290;28;20429;-78
2021/05/08 08:58:03;;;;;;;2.17;1.92;;;14.00;99.90;;;;;;4932984;29;20423;-80
2021/05/08 09:00:31;;;;;;;2.28;2.08;;;14.10;99.90;;;;;;4883783;29;20381;-80
2021/05/08 09:07:03;;;;;;;3.45;2.47;;;13.70;99.90;;;;;;4985725;23;20416;-85
2021/05/08 09:09:29;;;;;;;2.97;2.77;;;14.20;99.90;;;;;;4905678;29;20429;-82
2021/05/08 09:11:55;;;;;;;2.90;2.70;;;14.20;99.90;;;;;;4881953;29;20414;-81
2021/05/08 09:14:21;;;;;;;2.95;2.65;;;14.30;99.90;;;;;;4906380;29;20935;-82
2021/05/08 09:17:25;;;;;;;2.88;2.67;;;14.50;99.90;;;;;;4891233;29;20403;-81
2021/05/08 09:19:58;;;;;;;7.63;6.43;;;14.90;99.90;;;;;;4901753;29;20398;-85
2021/05/08 09:22:32;;;;;;;3.58;3.28;;;14.90;99.90;;;;;;4904420;29;20474;-86
2021/05/08 09:25:11;;;;;;;5.55;4.95;;;15.20;99.90;;;;;;4910105;29;20399;-82
2021/05/08 09:27:43;;;;;;;4.20;3.60;;;15.30;99.90;;;;;;4926946;29;20406;-82
2021/05/08 09:30:10;;;;;;;5.32;4.82;;;15.30;99.90;;;;;;4941812;29;20668;-88
2021/05/08 09:32:51;;;;;;;4.45;4.05;;;15.10;99.90;;;;;;4920085;29;20470;-82
2021/05/08 09:35:19;;;;;;;4.28;3.92;;;14.90;99.90;;;;;;4911850;28;20456;-89
2021/05/08 09:37:44;;;;;;;4.18;3.85;;;14.70;98.60;;;;;;4908899;29;20396;-85
2021/05/08 09:40:17;;;;;;;13.97;12.57;;;14.50;98.30;;;;;;4921303;29;20407;-87
2021/05/08 09:42:54;;;;;;;3.90;3.53;;;14.80;99.90;;;;;;4917405;29;20407;-84
2021/05/08 09:45:20;;;;;;;3.72;3.20;;;15.00;98.90;;;;;;4933733;29;20396;-88
2021/05/08 09:47:46;;;;;;;3.42;3.13;;;15.20;99.90;;;;;;4900551;29;20407;-82
2021/05/08 09:50:11;;;;;;;3.95;3.22;;;15.40;99.90;;;;;;4884604;29;20472;-84
2021/05/08 09:52:41;;;;;;;3.50;3.20;;;15.50;98.40;;;;;;4919717;29;20400;-87
2021/05/08 09:55:07;;;;;;;3.30;3.00;;;15.60;97.60;;;;;;4940992;29;20419;-82
2021/05/08 09:57:32;;;;;;;4.07;3.67;;;15.70;95.30;;;;;;4904481;29;20423;-87
2021/05/08 09:59:58;;;;;;;3.92;3.33;;;16.00;98.90;;;;;;4904847;29;20944;-85
2021/05/08 10:02:24;;;;;;;5.83;3.37;;;16.20;96.40;;;;;;4892347;29;20459;-82
2021/05/08 10:04:56;;;;;;;4.18;3.45;;;16.60;94.30;;;;;;4879561;29;20477;-87
2021/05/08 10:07:24;;;;;;;3.40;3.10;;;16.30;92.50;;;;;;4902455;29;20477;-82
2021/05/08 10:09:52;;;;;;;3.10;2.88;;;16.20;93.70;;;;;;4907050;29;20416;-83
2021/05/08 10:12:25;;;;;;;2.92;2.72;;;15.80;94.00;;;;;;4927046;29;20413;-85
2021/05/08 10:14:53;;;;;;;3.30;3.00;;;15.80;94.20;;;;;;4910416;29;20463;-87
2021/05/08 10:17:26;;;;;;;3.42;3.10;;;16.20;91.60;;;;;;4909987;29;20410;-82
2021/05/08 10:19:55;;;;;;;3.47;3.22;;;16.40;93.40;;;;;;4925841;29;20464;-84
2021/05/08 10:22:21;;;;;;;3.55;3.33;;;16.40;91.60;;;;;;4909033;29;20411;-81
2021/05/08 10:24:47;;;;;;;3.83;3.53;;;16.10;92.50;;;;;;4907514;29;20428;-86
2021/05/08 10:27:13;;;;;;;4.10;3.70;;;16.50;93.30;;;;;;4899461;29;20845;-82
2021/05/08 10:29:40;;;;;;;4.03;3.63;;;16.60;94.10;;;;;;4922009;29;20404;-83
2021/05/08 10:32:09;;;;;;;4.50;4.10;;;17.10;90.50;;;;;;4903270;29;20467;-87
2021/05/08 10:34:37;;;;;;;3.83;3.53;;;17.30;84.00;;;;;;4904558;29;20506;-81
2021/05/08 10:37:09;;;;;;;3.35;3.15;;;17.10;87.90;;;;;;4901978;29;20467;-83
2021/05/08 10:39:56;;;;;;;3.55;3.25;;;17.20;88.70;;;;;;4930594;29;20462;-82
2021/05/08 10:42:44;;;;;;;3.75;3.45;;;17.20;83.10;;;;;;4905023;29;20418;-82
2021/05/08 10:45:15;;;;;;;5.10;3.67;;;17.20;81.00;;;;;;4903643;29;20411;-82
2021/05/08 10:47:56;;;;;;;3.50;3.13;;;17.30;83.20;;;;;;4935184;29;20407;-84
2021/05/08 10:50:22;;;;;;;3.70;3.40;;;17.70;78.80;;;;;;4928619;29;20407;-82
2021/05/08 10:53:03;;;;;;;4.00;3.70;;;17.60;78.40;;;;;;4934964;29;20399;-81
2021/05/08 10:55:30;;;;;;;3.65;3.35;;;17.50;82.90;;;;;;4913682;29;20415;-81
2021/05/08 10:58:14;;;;;;;3.70;3.15;;;17.80;85.60;;;;;;4886205;29;20411;-82
2021/05/08 11:00:43;;;;;;;5.85;3.35;;;18.00;73.80;;;;;;4894404;29;20412;-82
2021/05/08 11:03:09;;;;;;;3.58;3.28;;;18.10;73.50;;;;;;4917639;29;21286;-85
2021/05/08 11:05:35;;;;;;;5.22;2.88;;;18.20;70.30;;;;;;4887135;29;20409;-85
2021/05/08 11:08:26;;;;;;;3.47;3.20;;;18.50;73.20;;;;;;4923193;29;20407;-87
2021/05/08 11:10:53;;;;;;;2.70;2.50;;;18.60;74.80;;;;;;4904653;29;20452;-87
2021/05/08 11:13:21;;;;;;;2.58;2.38;;;19.00;78.60;;;;;;4881612;29;20483;-86
2021/05/08 11:15:55;;;;;;;2.72;2.53;;;18.90;66.20;;;;;;4886002;29;20430;-82
2021/05/08 11:18:33;;;;;;;2.70;2.50;;;18.50;65.20;;;;;;4921768;29;20419;-83
2021/05/08 11:21:29;;;;;;;3.80;3.15;;;18.30;69.10;;;;;;4920475;29;20452;-82
2021/05/08 11:23:59;;;;;;;2.75;2.55;;;18.10;63.50;;;;;;4928304;29;20404;-82
2021/05/08 11:26:25;;;;;;;4.72;2.75;;;18.40;71.50;;;;;;4921089;29;20386;-83
2021/05/08 11:29:03;;;;;;;3.03;2.83;;;18.30;63.80;;;;;;4924305;29;20489;-84
2021/05/08 11:31:33;;;;;;;2.67;2.50;;;17.80;64.70;;;;;;4929518;29;20431;-82
2021/05/08 11:34:11;;;;;;;2.92;2.72;;;18.10;67.50;;;;;;4906235;29;20465;-82
2021/05/08 11:36:47;;;;;;;3.50;3.20;;;18.50;64.00;;;;;;4913964;29;20408;-82
2021/05/08 11:39:17;;;;;;;4.20;2.85;;;18.40;60.00;;;;;;4900706;29;20427;-86
2021/05/08 11:41:43;;;;;;;3.10;2.90;;;18.70;60.60;;;;;;4900904;29;20405;-84
2021/05/08 11:44:08;;;;;;;2.75;2.55;;;18.70;59.60;;;;;;4909950;29;22078;-84
2021/05/08 11:46:35;;;;;;;2.80;2.60;;;18.80;61.10;;;;;;4899443;29;20447;-82
2021/05/08 11:49:01;;;;;;;3.20;2.90;;;18.70;58.70;;;;;;4886141;29;20404;-85
2021/05/08 11:51:26;;;;;;;3.25;2.80;;;18.50;65.40;;;;;;4916117;29;20475;-83
2021/05/08 11:54:08;;;;;;;2.75;2.55;;;18.60;59.30;;;;;;4914769;29;20538;-82
2021/05/08 11:56:34;;;;;;;2.70;2.50;;;18.50;59.40;;;;;;4903077;29;20403;-81
2021/05/08 11:59:01;;;;;;;3.30;2.58;;;18.10;59.50;;;;;;4912755;29;20467;-81
2021/05/08 12:01:29;;;;;;;2.88;2.63;;;18.00;61.70;;;;;;4882322;29;20410;-81
2021/05/08 12:03:55;;;;;;;2.85;2.63;;;17.80;61.30;;;;;;4891005;29;20405;-81
2021/05/08 12:06:21;;;;;;;2.65;2.45;;;17.80;62.00;;;;;;4889425;29;20424;-82
2021/05/08 12:08:47;;;;;;;2.80;2.50;;;17.70;60.90;;;;;;4892159;29;20401;-83
2021/05/08 12:11:16;;;;;;;3.58;2.70;;;17.70;58.30;;;;;;4900164;29;20399;-84
2021/05/08 12:13:42;;;;;;;2.75;2.55;;;18.00;60.90;;;;;;4915982;29;20426;-83
2021/05/08 12:16:08;;;;;;;2.63;2.33;;;18.30;59.20;;;;;;4884646;29;20713;-86
2021/05/08 12:18:34;;;;;;;3.03;2.23;;;18.60;58.10;;;;;;4900690;29;20423;-82
2021/05/08 12:21:01;;;;;;;2.20;2.08;;;18.60;60.00;;;;;;4916893;29;20421;-83
2021/05/08 12:23:27;;;;;;;3.00;2.77;;;19.00;59.50;;;;;;4878447;29;20972;-83
2021/05/08 12:26:13;;;;;;;2.50;2.30;;;19.00;56.10;;;;;;4921026;29;20427;-81
2021/05/08 12:28:39;;;;;;;3.60;2.50;;;18.70;57.80;;;;;;4900456;29;20408;-83
2021/05/08 12:31:22;;;;;;;3.42;2.58;;;18.50;56.50;;;;;;4883195;29;20414;-83
2021/05/08 12:33:47;;;;;;;2.05;1.90;;;17.70;55.30;;;;;;4898774;29;20409;-81
2021/05/08 12:36:17;;;;;;;2.17;2.00;;;17.50;57.20;;;;;;4886346;29;20441;-81
2021/05/08 12:38:43;;;;;;;2.45;2.25;;;17.50;58.20;;;;;;4889705;29;20434;-85
2021/05/08 12:41:31;;;;;;;2.45;2.25;;;18.00;57.60;;;;;;4899870;29;20413;-80
2021/05/08 12:44:09;;;;;;;2.10;2.00;;;18.30;56.90;;;;;;4917059;29;20438;-81
2021/05/08 12:47:16;;;;;;;2.50;2.30;;;18.30;56.70;;;;;;4896959;29;20423;-89
2021/05/08 12:50:08;;;;;;;2.45;2.25;;;18.30;54.10;;;;;;4927145;29;20408;-81
2021/05/08 12:52:44;;;;;;;2.10;2.00;;;18.30;57.50;;;;;;4919173;29;20432;-81
2021/05/08 12:55:26;;;;;;;4.75;2.30;;;18.50;53.60;;;;;;4903914;29;20918;-81
2021/05/08 12:57:52;;;;;;;2.55;2.35;;;18.20;55.10;;;;;;4887254;29;20412;-85
2021/05/08 13:00:18;;;;;;;2.40;2.20;;;18.40;53.50;;;;;;4898999;29;20398;-82